sensor_id;sensor_type;location;lat;lon;timestamp;pressure;altitude;pressure_sealevel;temperature;humidity
56042;BME280;48756;41.374;2.066;2022-08-18T00:00:43;100607.31;;;22.34;92.78
56042;BME280;48756;41.374;2.066;2022-08-18T00:03:09;100599.81;;;21.96;90.63
56042;BME280;48756;41.374;2.066;2022-08-18T00:05:36;100587.22;;;21.54;92.88
56042;BME280;48756;41.374;2.066;2022-08-18T00:08:02;100573.28;;;21.19;95.96
56042;BME280;48756;41.374;2.066;2022-08-18T00:10:28;100567.38;;;21.14;96.41
56042;BME280;48756;41.374;2.066;2022-08-18T00:12:54;100564.69;;;21.31;92.01
56042;BME280;48756;41.374;2.066;2022-08-18T00:15:20;100565.00;;;21.09;92.31
56042;BME280;48756;41.374;2.066;2022-08-18T00:17:46;100572.81;;;20.79;94.92
56042;BME280;48756;41.374;2.066;2022-08-18T00:20:15;100567.22;;;20.52;93.10
56042;BME280;48756;41.374;2.066;2022-08-18T00:22:41;100564.22;;;20.58;95.49
56042;BME280;48756;41.374;2.066;2022-08-18T00:25:09;100569.84;;;21.01;92.39
56042;BME280;48756;41.374;2.066;2022-08-18T00:27:36;100575.69;;;20.59;95.18
56042;BME280;48756;41.374;2.066;2022-08-18T00:30:05;100559.75;;;20.60;96.30
56042;BME280;48756;41.374;2.066;2022-08-18T00:32:36;100566.34;;;20.52;95.75
56042;BME280;48756;41.374;2.066;2022-08-18T00:35:06;100572.97;;;20.60;98.42
56042;BME280;48756;41.374;2.066;2022-08-18T00:37:32;100570.28;;;20.93;98.10
56042;BME280;48756;41.374;2.066;2022-08-18T00:39:58;100567.78;;;21.22;98.27
56042;BME280;48756;41.374;2.066;2022-08-18T00:42:26;100570.97;;;21.13;96.08
56042;BME280;48756;41.374;2.066;2022-08-18T00:44:52;100557.38;;;21.03;97.63
56042;BME280;48756;41.374;2.066;2022-08-18T00:47:19;100532.66;;;20.71;96.72
56042;BME280;48756;41.374;2.066;2022-08-18T00:49:46;100508.72;;;20.41;98.04
56042;BME280;48756;41.374;2.066;2022-08-18T00:52:14;100495.44;;;20.74;100.00
56042;BME280;48756;41.374;2.066;2022-08-18T00:54:42;100495.25;;;20.77;98.81
56042;BME280;48756;41.374;2.066;2022-08-18T00:57:10;100472.94;;;21.13;96.11
56042;BME280;48756;41.374;2.066;2022-08-18T01:02:16;100456.03;;;21.45;90.08
56042;BME280;48756;41.374;2.066;2022-08-18T01:04:52;100449.09;;;21.13;89.93
56042;BME280;48756;41.374;2.066;2022-08-18T01:07:24;100455.44;;;20.94;90.95
56042;BME280;48756;41.374;2.066;2022-08-18T01:09:50;100468.25;;;21.02;93.81
56042;BME280;48756;41.374;2.066;2022-08-18T01:12:17;100483.47;;;20.67;94.34
56042;BME280;48756;41.374;2.066;2022-08-18T01:14:44;100484.91;;;20.72;93.65
56042;BME280;48756;41.374;2.066;2022-08-18T01:17:11;100486.91;;;20.85;94.71
56042;BME280;48756;41.374;2.066;2022-08-18T01:19:55;100502.94;;;20.82;95.83
56042;BME280;48756;41.374;2.066;2022-08-18T01:25:12;100498.09;;;21.05;94.85
56042;BME280;48756;41.374;2.066;2022-08-18T01:27:56;100453.56;;;21.28;94.66
56042;BME280;48756;41.374;2.066;2022-08-18T01:30:22;100390.72;;;20.68;98.28
56042;BME280;48756;41.374;2.066;2022-08-18T01:32:51;100350.81;;;20.71;100.00
56042;BME280;48756;41.374;2.066;2022-08-18T01:35:18;100341.56;;;20.48;97.43
56042;BME280;48756;41.374;2.066;2022-08-18T01:37:46;100373.13;;;20.67;93.66
56042;BME280;48756;41.374;2.066;2022-08-18T01:40:13;100405.88;;;20.96;88.12
56042;BME280;48756;41.374;2.066;2022-08-18T01:42:39;100427.25;;;20.93;88.38
56042;BME280;48756;41.374;2.066;2022-08-18T01:45:08;100429.31;;;20.72;86.00
56042;BME280;48756;41.374;2.066;2022-08-18T01:47:35;100437.84;;;20.77;86.51
56042;BME280;48756;41.374;2.066;2022-08-18T01:50:02;100447.50;;;20.78;88.58
56042;BME280;48756;41.374;2.066;2022-08-18T01:52:29;100440.09;;;20.85;92.71
56042;BME280;48756;41.374;2.066;2022-08-18T01:54:55;100438.38;;;20.68;96.64
56042;BME280;48756;41.374;2.066;2022-08-18T01:57:23;100438.41;;;20.35;96.22
56042;BME280;48756;41.374;2.066;2022-08-18T01:59:48;100440.34;;;20.49;96.19
56042;BME280;48756;41.374;2.066;2022-08-18T02:02:19;100455.53;;;20.45;95.31
56042;BME280;48756;41.374;2.066;2022-08-18T02:04:53;100463.63;;;20.58;93.88
56042;BME280;48756;41.374;2.066;2022-08-18T02:07:20;100473.56;;;20.70;91.11
56042;BME280;48756;41.374;2.066;2022-08-18T02:09:46;100469.31;;;20.84;90.27
56042;BME280;48756;41.374;2.066;2022-08-18T02:12:12;100478.16;;;20.98;88.36
56042;BME280;48756;41.374;2.066;2022-08-18T02:14:38;100481.56;;;21.00;85.78
56042;BME280;48756;41.374;2.066;2022-08-18T02:17:06;100503.03;;;21.12;84.54
56042;BME280;48756;41.374;2.066;2022-08-18T02:19:38;100499.88;;;21.05;82.30
56042;BME280;48756;41.374;2.066;2022-08-18T02:22:06;100507.38;;;21.13;80.82
56042;BME280;48756;41.374;2.066;2022-08-18T02:24:32;100514.38;;;20.98;79.18
56042;BME280;48756;41.374;2.066;2022-08-18T02:26:58;100518.16;;;21.09;78.24
56042;BME280;48756;41.374;2.066;2022-08-18T02:29:23;100509.78;;;21.01;77.90
56042;BME280;48756;41.374;2.066;2022-08-18T02:31:49;100514.56;;;21.10;78.47
56042;BME280;48756;41.374;2.066;2022-08-18T02:34:16;100520.28;;;21.19;77.77
56042;BME280;48756;41.374;2.066;2022-08-18T02:36:41;100520.03;;;20.92;76.32
56042;BME280;48756;41.374;2.066;2022-08-18T02:39:07;100513.19;;;21.03;76.59
56042;BME280;48756;41.374;2.066;2022-08-18T02:41:32;100513.97;;;21.05;76.61
56042;BME280;48756;41.374;2.066;2022-08-18T02:43:58;100510.47;;;21.05;75.05
56042;BME280;48756;41.374;2.066;2022-08-18T02:46:25;100512.00;;;21.25;76.19
56042;BME280;48756;41.374;2.066;2022-08-18T02:48:51;100526.03;;;21.11;73.35
56042;BME280;48756;41.374;2.066;2022-08-18T02:51:17;100524.13;;;21.13;73.12
56042;BME280;48756;41.374;2.066;2022-08-18T02:53:45;100530.47;;;21.26;73.61
56042;BME280;48756;41.374;2.066;2022-08-18T02:56:13;100516.28;;;21.27;72.75
56042;BME280;48756;41.374;2.066;2022-08-18T02:59:00;100511.56;;;21.17;70.42
56042;BME280;48756;41.374;2.066;2022-08-18T03:01:34;100499.59;;;21.25;72.37
56042;BME280;48756;41.374;2.066;2022-08-18T03:04:01;100499.00;;;21.04;73.41
56042;BME280;48756;41.374;2.066;2022-08-18T03:06:28;100486.38;;;20.78;74.67
56042;BME280;48756;41.374;2.066;2022-08-18T03:08:55;100488.84;;;20.65;72.59
56042;BME280;48756;41.374;2.066;2022-08-18T03:11:24;100486.63;;;20.73;71.57
56042;BME280;48756;41.374;2.066;2022-08-18T03:13:50;100481.44;;;20.88;71.28
56042;BME280;48756;41.374;2.066;2022-08-18T03:16:17;100490.31;;;20.87;70.54
56042;BME280;48756;41.374;2.066;2022-08-18T03:18:43;100480.22;;;21.09;69.84
56042;BME280;48756;41.374;2.066;2022-08-18T03:21:16;100469.16;;;21.17;66.84
56042;BME280;48756;41.374;2.066;2022-08-18T03:23:43;100461.13;;;21.34;70.38
56042;BME280;48756;41.374;2.066;2022-08-18T03:26:14;100459.13;;;21.07;69.72
56042;BME280;48756;41.374;2.066;2022-08-18T03:28:43;100457.16;;;20.95;69.75
56042;BME280;48756;41.374;2.066;2022-08-18T03:31:10;100452.34;;;21.33;72.68
56042;BME280;48756;41.374;2.066;2022-08-18T03:33:36;100449.50;;;21.36;69.04
56042;BME280;48756;41.374;2.066;2022-08-18T03:36:07;100447.13;;;21.16;64.99
56042;BME280;48756;41.374;2.066;2022-08-18T03:38:33;100451.94;;;21.09;67.21
56042;BME280;48756;41.374;2.066;2022-08-18T03:40:59;100452.84;;;21.24;67.98
56042;BME280;48756;41.374;2.066;2022-08-18T03:43:25;100457.81;;;21.15;70.10
56042;BME280;48756;41.374;2.066;2022-08-18T03:45:52;100462.63;;;20.92;70.74
56042;BME280;48756;41.374;2.066;2022-08-18T03:48:20;100454.78;;;20.91;69.92
56042;BME280;48756;41.374;2.066;2022-08-18T03:50:46;100445.19;;;20.88;70.97
56042;BME280;48756;41.374;2.066;2022-08-18T03:53:13;100446.50;;;20.65;69.59
56042;BME280;48756;41.374;2.066;2022-08-18T03:55:40;100438.53;;;20.49;71.97
56042;BME280;48756;41.374;2.066;2022-08-18T03:58:06;100444.78;;;20.48;72.40
56042;BME280;48756;41.374;2.066;2022-08-18T04:00:32;100458.13;;;20.30;73.07
56042;BME280;48756;41.374;2.066;2022-08-18T04:03:01;100458.28;;;20.60;72.83
56042;BME280;48756;41.374;2.066;2022-08-18T04:05:27;100474.34;;;20.72;71.47
56042;BME280;48756;41.374;2.066;2022-08-18T04:07:54;100478.25;;;20.81;72.98
56042;BME280;48756;41.374;2.066;2022-08-18T04:10:24;100482.38;;;20.87;73.17
56042;BME280;48756;41.374;2.066;2022-08-18T04:12:50;100479.19;;;20.48;73.75
56042;BME280;48756;41.374;2.066;2022-08-18T04:15:16;100486.88;;;20.20;76.10
56042;BME280;48756;41.374;2.066;2022-08-18T04:17:42;100480.13;;;20.14;76.06
56042;BME280;48756;41.374;2.066;2022-08-18T04:20:11;100477.63;;;20.11;75.56
56042;BME280;48756;41.374;2.066;2022-08-18T04:22:38;100469.53;;;20.14;75.82
56042;BME280;48756;41.374;2.066;2022-08-18T04:25:05;100476.97;;;20.41;74.15
56042;BME280;48756;41.374;2.066;2022-08-18T04:27:34;100475.88;;;20.28;73.37
56042;BME280;48756;41.374;2.066;2022-08-18T04:30:01;100488.09;;;19.97;74.29
56042;BME280;48756;41.374;2.066;2022-08-18T04:32:29;100475.63;;;19.99;73.85
56042;BME280;48756;41.374;2.066;2022-08-18T04:34:54;100472.38;;;19.94;73.22
56042;BME280;48756;41.374;2.066;2022-08-18T04:37:20;100465.13;;;19.98;73.84
56042;BME280;48756;41.374;2.066;2022-08-18T04:39:46;100466.84;;;19.99;73.13
56042;BME280;48756;41.374;2.066;2022-08-18T04:42:12;100458.31;;;20.09;71.60
56042;BME280;48756;41.374;2.066;2022-08-18T04:44:38;100459.00;;;20.13;71.57
56042;BME280;48756;41.374;2.066;2022-08-18T04:47:04;100461.00;;;20.25;69.39
56042;BME280;48756;41.374;2.066;2022-08-18T04:49:30;100463.56;;;20.27;67.46
56042;BME280;48756;41.374;2.066;2022-08-18T04:51:58;100461.59;;;20.14;69.01
56042;BME280;48756;41.374;2.066;2022-08-18T04:54:42;100457.38;;;20.10;68.73
56042;BME280;48756;41.374;2.066;2022-08-18T04:57:16;100467.88;;;20.12;68.25
56042;BME280;48756;41.374;2.066;2022-08-18T04:59:44;100470.00;;;20.05;67.56
56042;BME280;48756;41.374;2.066;2022-08-18T05:02:11;100467.03;;;20.11;68.12
56042;BME280;48756;41.374;2.066;2022-08-18T05:04:38;100462.69;;;20.10;67.08
56042;BME280;48756;41.374;2.066;2022-08-18T05:07:07;100463.31;;;20.15;67.04
56042;BME280;48756;41.374;2.066;2022-08-18T05:09:33;100465.09;;;20.15;66.41
56042;BME280;48756;41.374;2.066;2022-08-18T05:12:01;100473.44;;;20.07;66.75
56042;BME280;48756;41.374;2.066;2022-08-18T05:14:27;100477.81;;;20.24;64.64
56042;BME280;48756;41.374;2.066;2022-08-18T05:16:52;100484.91;;;20.24;65.86
56042;BME280;48756;41.374;2.066;2022-08-18T05:19:20;100477.91;;;20.23;66.22
56042;BME280;48756;41.374;2.066;2022-08-18T05:21:48;100479.88;;;20.19;66.08
56042;BME280;48756;41.374;2.066;2022-08-18T05:24:14;100478.44;;;20.29;65.40
56042;BME280;48756;41.374;2.066;2022-08-18T05:26:39;100478.50;;;20.28;65.63
56042;BME280;48756;41.374;2.066;2022-08-18T05:29:06;100478.50;;;20.28;66.21
56042;BME280;48756;41.374;2.066;2022-08-18T05:31:32;100483.72;;;20.29;66.42
56042;BME280;48756;41.374;2.066;2022-08-18T05:33:58;100496.25;;;20.26;65.92
56042;BME280;48756;41.374;2.066;2022-08-18T05:42:15;100504.06;;;20.62;64.15
56042;BME280;48756;41.374;2.066;2022-08-18T05:44:46;100497.03;;;20.45;64.98
56042;BME280;48756;41.374;2.066;2022-08-18T05:47:24;100491.09;;;20.40;64.63
56042;BME280;48756;41.374;2.066;2022-08-18T05:49:50;100492.13;;;20.37;65.00
56042;BME280;48756;41.374;2.066;2022-08-18T05:52:27;100488.31;;;20.59;64.85
56042;BME280;48756;41.374;2.066;2022-08-18T05:55:02;100486.88;;;20.53;64.96
56042;BME280;48756;41.374;2.066;2022-08-18T05:57:57;100489.94;;;20.45;65.08
56042;BME280;48756;41.374;2.066;2022-08-18T06:00:27;100484.91;;;20.41;64.46
56042;BME280;48756;41.374;2.066;2022-08-18T06:03:02;100478.41;;;20.46;64.42
56042;BME280;48756;41.374;2.066;2022-08-18T06:05:40;100476.22;;;20.70;64.62
56042;BME280;48756;41.374;2.066;2022-08-18T06:08:13;100475.41;;;20.53;64.63
56042;BME280;48756;41.374;2.066;2022-08-18T06:10:43;100482.09;;;20.44;63.58
56042;BME280;48756;41.374;2.066;2022-08-18T06:13:10;100485.06;;;20.54;62.65
56042;BME280;48756;41.374;2.066;2022-08-18T06:18:10;100472.19;;;20.47;63.73
56042;BME280;48756;41.374;2.066;2022-08-18T06:21:02;100478.91;;;20.53;62.69
56042;BME280;48756;41.374;2.066;2022-08-18T06:23:41;100474.66;;;20.51;62.77
56042;BME280;48756;41.374;2.066;2022-08-18T06:34:23;100464.50;;;20.74;61.96
56042;BME280;48756;41.374;2.066;2022-08-18T06:36:57;100463.81;;;20.71;62.40
56042;BME280;48756;41.374;2.066;2022-08-18T06:39:34;100465.78;;;20.67;62.04
56042;BME280;48756;41.374;2.066;2022-08-18T06:42:01;100466.66;;;20.68;61.83
56042;BME280;48756;41.374;2.066;2022-08-18T06:44:40;100468.25;;;20.70;63.18
56042;BME280;48756;41.374;2.066;2022-08-18T06:47:38;100468.06;;;20.58;62.59
56042;BME280;48756;41.374;2.066;2022-08-18T06:50:12;100471.69;;;20.72;62.51
56042;BME280;48756;41.374;2.066;2022-08-18T06:52:57;100480.81;;;20.67;61.44
56042;BME280;48756;41.374;2.066;2022-08-18T06:55:41;100487.41;;;20.60;62.01
56042;BME280;48756;41.374;2.066;2022-08-18T07:03:20;100492.63;;;20.93;61.14
56042;BME280;48756;41.374;2.066;2022-08-18T07:06:25;100500.97;;;21.01;61.21
56042;BME280;48756;41.374;2.066;2022-08-18T07:08:54;100502.25;;;20.94;60.48
56042;BME280;48756;41.374;2.066;2022-08-18T07:13:49;100507.88;;;21.03;60.70
56042;BME280;48756;41.374;2.066;2022-08-18T07:18:51;100516.44;;;20.93;60.72
56042;BME280;48756;41.374;2.066;2022-08-18T07:21:29;100519.88;;;20.95;61.51
56042;BME280;48756;41.374;2.066;2022-08-18T07:24:21;100516.22;;;21.29;60.48
56042;BME280;48756;41.374;2.066;2022-08-18T07:29:31;100529.38;;;21.30;59.90
56042;BME280;48756;41.374;2.066;2022-08-18T07:32:02;100525.78;;;21.31;60.42
56042;BME280;48756;41.374;2.066;2022-08-18T07:34:36;100538.94;;;21.33;59.94
56042;BME280;48756;41.374;2.066;2022-08-18T07:40:17;100529.19;;;21.33;60.99
56042;BME280;48756;41.374;2.066;2022-08-18T07:45:31;100535.91;;;21.23;59.77
56042;BME280;48756;41.374;2.066;2022-08-18T07:48:15;100532.88;;;21.31;61.37
56042;BME280;48756;41.374;2.066;2022-08-18T07:53:36;100547.63;;;21.19;61.04
56042;BME280;48756;41.374;2.066;2022-08-18T08:07:55;100564.69;;;21.31;61.23
56042;BME280;48756;41.374;2.066;2022-08-18T08:15:40;100575.59;;;21.09;61.29
56042;BME280;48756;41.374;2.066;2022-08-18T08:21:04;100582.59;;;21.10;61.28
56042;BME280;48756;41.374;2.066;2022-08-18T08:23:57;100593.44;;;21.21;60.61
56042;BME280;48756;41.374;2.066;2022-08-18T08:26:56;100593.41;;;21.38;60.62
56042;BME280;48756;41.374;2.066;2022-08-18T08:29:39;100597.44;;;21.30;61.08
56042;BME280;48756;41.374;2.066;2022-08-18T08:32:12;100591.31;;;21.12;60.36
56042;BME280;48756;41.374;2.066;2022-08-18T08:34:52;100598.03;;;21.35;60.09
56042;BME280;48756;41.374;2.066;2022-08-18T08:37:37;100600.72;;;21.65;59.84
56042;BME280;48756;41.374;2.066;2022-08-18T08:40:19;100610.06;;;21.40;60.07
56042;BME280;48756;41.374;2.066;2022-08-18T08:45:25;100615.94;;;21.46;59.53
56042;BME280;48756;41.374;2.066;2022-08-18T08:50:26;100615.53;;;21.53;59.51
56042;BME280;48756;41.374;2.066;2022-08-18T08:53:05;100631.63;;;21.34;60.36
56042;BME280;48756;41.374;2.066;2022-08-18T08:55:51;100621.53;;;21.57;59.83
56042;BME280;48756;41.374;2.066;2022-08-18T08:58:26;100626.00;;;21.70;59.74
56042;BME280;48756;41.374;2.066;2022-08-18T09:00:54;100637.44;;;21.57;60.12
56042;BME280;48756;41.374;2.066;2022-08-18T09:11:34;100651.44;;;21.59;60.74
56042;BME280;48756;41.374;2.066;2022-08-18T09:42:16;100638.22;;;22.05;60.23
56042;BME280;48756;41.374;2.066;2022-08-18T09:49:52;100630.88;;;22.68;58.64
56042;BME280;48756;41.374;2.066;2022-08-18T09:59:55;100623.69;;;22.99;56.89
56042;BME280;48756;41.374;2.066;2022-08-18T10:10:43;100614.13;;;23.37;55.84
56042;BME280;48756;41.374;2.066;2022-08-18T10:13:33;100614.50;;;23.99;54.31
56042;BME280;48756;41.374;2.066;2022-08-18T10:21:17;100603.06;;;25.00;52.20
56042;BME280;48756;41.374;2.066;2022-08-18T10:29:03;100606.59;;;25.61;49.05
56042;BME280;48756;41.374;2.066;2022-08-18T10:34:38;100603.63;;;26.01;47.21
56042;BME280;48756;41.374;2.066;2022-08-18T10:37:29;100599.50;;;25.73;48.04
56042;BME280;48756;41.374;2.066;2022-08-18T10:45:24;100603.13;;;25.96;47.71
56042;BME280;48756;41.374;2.066;2022-08-18T10:50:38;100600.13;;;26.36;45.73
56042;BME280;48756;41.374;2.066;2022-08-18T11:04:32;100587.88;;;26.78;45.27
56042;BME280;48756;41.374;2.066;2022-08-18T11:07:20;100579.97;;;26.54;44.04
56042;BME280;48756;41.374;2.066;2022-08-18T11:09:55;100571.38;;;26.73;42.07
56042;BME280;48756;41.374;2.066;2022-08-18T11:15:24;100580.25;;;27.50;41.99
56042;BME280;48756;41.374;2.066;2022-08-18T11:20:23;100587.22;;;27.41;40.96
56042;BME280;48756;41.374;2.066;2022-08-18T11:22:54;100579.72;;;27.56;40.10
56042;BME280;48756;41.374;2.066;2022-08-18T11:25:33;100585.19;;;27.98;40.17
56042;BME280;48756;41.374;2.066;2022-08-18T11:28:00;100590.09;;;28.14;38.94
56042;BME280;48756;41.374;2.066;2022-08-18T11:30:33;100585.72;;;28.13;39.21
56042;BME280;48756;41.374;2.066;2022-08-18T11:33:02;100588.13;;;27.95;38.95
56042;BME280;48756;41.374;2.066;2022-08-18T11:35:31;100593.53;;;27.84;39.82
56042;BME280;48756;41.374;2.066;2022-08-18T11:38:00;100588.03;;;28.38;38.52
56042;BME280;48756;41.374;2.066;2022-08-18T11:40:30;100595.31;;;28.57;38.36
56042;BME280;48756;41.374;2.066;2022-08-18T11:43:12;100598.50;;;28.51;38.82
56042;BME280;48756;41.374;2.066;2022-08-18T11:48:34;100595.94;;;29.60;38.29
56042;BME280;48756;41.374;2.066;2022-08-18T11:51:09;100594.41;;;30.06;38.32
56042;BME280;48756;41.374;2.066;2022-08-18T11:53:39;100589.97;;;30.43;37.84
56042;BME280;48756;41.374;2.066;2022-08-18T12:06:40;100575.88;;;29.64;36.55
56042;BME280;48756;41.374;2.066;2022-08-18T12:12:22;100573.72;;;31.09;36.04
56042;BME280;48756;41.374;2.066;2022-08-18T12:17:21;100564.56;;;31.02;36.38
56042;BME280;48756;41.374;2.066;2022-08-18T12:19:47;100560.66;;;31.15;36.93
56042;BME280;48756;41.374;2.066;2022-08-18T12:22:21;100560.31;;;30.72;39.16
56042;BME280;48756;41.374;2.066;2022-08-18T12:24:48;100564.75;;;30.64;38.20
56042;BME280;48756;41.374;2.066;2022-08-18T12:27:17;100563.59;;;29.52;39.17
56042;BME280;48756;41.374;2.066;2022-08-18T12:29:43;100552.66;;;29.24;40.37
56042;BME280;48756;41.374;2.066;2022-08-18T12:32:09;100562.44;;;29.83;39.85
56042;BME280;48756;41.374;2.066;2022-08-18T12:34:35;100571.50;;;30.02;40.05
56042;BME280;48756;41.374;2.066;2022-08-18T12:37:02;100569.16;;;30.45;39.83
56042;BME280;48756;41.374;2.066;2022-08-18T12:39:29;100582.53;;;30.08;39.68
56042;BME280;48756;41.374;2.066;2022-08-18T12:41:55;100568.75;;;30.87;38.81
56042;BME280;48756;41.374;2.066;2022-08-18T12:44:21;100584.69;;;30.52;39.77
56042;BME280;48756;41.374;2.066;2022-08-18T12:46:47;100576.91;;;31.23;37.24
56042;BME280;48756;41.374;2.066;2022-08-18T12:49:23;100585.25;;;30.65;38.59
56042;BME280;48756;41.374;2.066;2022-08-18T12:51:50;100579.09;;;30.35;41.30
56042;BME280;48756;41.374;2.066;2022-08-18T12:54:18;100585.34;;;29.97;40.86
56042;BME280;48756;41.374;2.066;2022-08-18T12:56:47;100585.03;;;30.29;40.00
56042;BME280;48756;41.374;2.066;2022-08-18T12:59:13;100587.34;;;29.85;40.90
56042;BME280;48756;41.374;2.066;2022-08-18T13:01:39;100591.50;;;30.65;40.45
56042;BME280;48756;41.374;2.066;2022-08-18T13:04:05;100593.19;;;30.66;38.70
56042;BME280;48756;41.374;2.066;2022-08-18T13:06:37;100594.34;;;30.91;39.58
56042;BME280;48756;41.374;2.066;2022-08-18T13:09:06;100597.78;;;30.37;41.37
56042;BME280;48756;41.374;2.066;2022-08-18T13:11:33;100602.25;;;30.65;39.34
56042;BME280;48756;41.374;2.066;2022-08-18T13:13:58;100596.16;;;30.54;40.25
56042;BME280;48756;41.374;2.066;2022-08-18T13:16:25;100601.72;;;30.42;40.18
56042;BME280;48756;41.374;2.066;2022-08-18T13:18:55;100597.34;;;30.88;40.04
56042;BME280;48756;41.374;2.066;2022-08-18T13:21:20;100605.97;;;31.19;38.17
56042;BME280;48756;41.374;2.066;2022-08-18T13:23:46;100600.09;;;30.78;38.78
56042;BME280;48756;41.374;2.066;2022-08-18T13:26:24;100600.56;;;30.92;39.26
56042;BME280;48756;41.374;2.066;2022-08-18T13:28:50;100605.44;;;30.03;38.89
56042;BME280;48756;41.374;2.066;2022-08-18T13:31:16;100604.44;;;31.17;39.47
56042;BME280;48756;41.374;2.066;2022-08-18T13:33:42;100601.94;;;31.33;37.95
56042;BME280;48756;41.374;2.066;2022-08-18T13:36:07;100609.34;;;30.94;38.30
56042;BME280;48756;41.374;2.066;2022-08-18T13:38:33;100621.97;;;30.37;40.82
56042;BME280;48756;41.374;2.066;2022-08-18T13:41:01;100614.25;;;31.08;37.97
56042;BME280;48756;41.374;2.066;2022-08-18T13:43:37;100625.09;;;31.26;38.81
56042;BME280;48756;41.374;2.066;2022-08-18T13:46:04;100625.13;;;30.13;38.85
56042;BME280;48756;41.374;2.066;2022-08-18T13:48:31;100620.56;;;30.89;37.33
56042;BME280;48756;41.374;2.066;2022-08-18T13:50:57;100623.19;;;31.36;37.28
56042;BME280;48756;41.374;2.066;2022-08-18T13:53:25;100633.31;;;31.69;37.04
56042;BME280;48756;41.374;2.066;2022-08-18T13:55:51;100639.16;;;30.83;38.12
56042;BME280;48756;41.374;2.066;2022-08-18T13:58:17;100631.31;;;31.26;38.67
56042;BME280;48756;41.374;2.066;2022-08-18T14:00:44;100648.91;;;31.48;36.38
56042;BME280;48756;41.374;2.066;2022-08-18T14:03:10;100647.84;;;31.04;37.59
56042;BME280;48756;41.374;2.066;2022-08-18T14:05:36;100648.09;;;31.11;36.43
56042;BME280;48756;41.374;2.066;2022-08-18T14:08:02;100661.28;;;31.59;38.15
56042;BME280;48756;41.374;2.066;2022-08-18T14:10:30;100666.06;;;31.47;38.38
56042;BME280;48756;41.374;2.066;2022-08-18T14:12:58;100677.88;;;30.04;39.37
56042;BME280;48756;41.374;2.066;2022-08-18T14:15:24;100677.97;;;29.83;39.62
56042;BME280;48756;41.374;2.066;2022-08-18T14:17:50;100677.22;;;28.50;41.10
56042;BME280;48756;41.374;2.066;2022-08-18T14:20:23;100695.09;;;28.60;41.68
56042;BME280;48756;41.374;2.066;2022-08-18T14:23:06;100692.03;;;28.44;42.57
56042;BME280;48756;41.374;2.066;2022-08-18T14:25:54;100674.47;;;29.43;41.83
56042;BME280;48756;41.374;2.066;2022-08-18T14:28:38;100681.75;;;28.91;42.12
56042;BME280;48756;41.374;2.066;2022-08-18T14:31:04;100692.28;;;28.62;43.27
56042;BME280;48756;41.374;2.066;2022-08-18T14:33:30;100683.56;;;29.51;42.41
56042;BME280;48756;41.374;2.066;2022-08-18T14:35:56;100693.19;;;28.30;43.07
56042;BME280;48756;41.374;2.066;2022-08-18T14:38:22;100706.09;;;27.93;44.84
56042;BME280;48756;41.374;2.066;2022-08-18T14:40:49;100715.53;;;27.65;46.21
56042;BME280;48756;41.374;2.066;2022-08-18T14:43:17;100712.47;;;27.36;46.12
56042;BME280;48756;41.374;2.066;2022-08-18T14:45:45;100699.69;;;26.84;46.58
56042;BME280;48756;41.374;2.066;2022-08-18T14:48:17;100693.25;;;26.98;47.29
56042;BME280;48756;41.374;2.066;2022-08-18T14:50:45;100695.13;;;27.20;49.02
56042;BME280;48756;41.374;2.066;2022-08-18T14:53:13;100701.00;;;26.90;51.93
56042;BME280;48756;41.374;2.066;2022-08-18T14:55:39;100707.03;;;26.58;51.88
56042;BME280;48756;41.374;2.066;2022-08-18T14:58:05;100729.91;;;26.14;52.97
56042;BME280;48756;41.374;2.066;2022-08-18T15:00:31;100736.63;;;25.96;56.91
56042;BME280;48756;41.374;2.066;2022-08-18T15:02:57;100739.97;;;25.87;60.94
56042;BME280;48756;41.374;2.066;2022-08-18T15:05:23;100748.44;;;25.55;61.89
56042;BME280;48756;41.374;2.066;2022-08-18T15:07:49;100764.41;;;25.19;64.20
56042;BME280;48756;41.374;2.066;2022-08-18T15:10:15;100790.84;;;25.09;63.56
56042;BME280;48756;41.374;2.066;2022-08-18T15:12:41;100807.38;;;25.01;68.09
56042;BME280;48756;41.374;2.066;2022-08-18T15:15:10;100847.34;;;24.35;66.94
56042;BME280;48756;41.374;2.066;2022-08-18T15:17:39;100863.28;;;23.79;69.09
56042;BME280;48756;41.374;2.066;2022-08-18T15:20:07;100867.78;;;23.35;75.03
56042;BME280;48756;41.374;2.066;2022-08-18T15:22:41;100854.59;;;23.47;78.71
56042;BME280;48756;41.374;2.066;2022-08-18T15:25:26;100852.31;;;23.56;80.33
56042;BME280;48756;41.374;2.066;2022-08-18T15:28:15;100869.59;;;23.48;78.66
56042;BME280;48756;41.374;2.066;2022-08-18T15:30:43;100885.53;;;23.34;76.57
56042;BME280;48756;41.374;2.066;2022-08-18T15:33:10;100896.84;;;22.46;82.25
56042;BME280;48756;41.374;2.066;2022-08-18T15:35:36;100906.03;;;22.41;86.68
56042;BME280;48756;41.374;2.066;2022-08-18T15:38:03;100917.53;;;21.75;93.43
56042;BME280;48756;41.374;2.066;2022-08-18T15:40:29;100918.34;;;21.43;95.45
56042;BME280;48756;41.374;2.066;2022-08-18T15:42:56;100926.69;;;21.85;95.72
56042;BME280;48756;41.374;2.066;2022-08-18T15:45:28;100916.06;;;22.02;94.45
56042;BME280;48756;41.374;2.066;2022-08-18T15:47:56;100904.19;;;21.77;92.28
56042;BME280;48756;41.374;2.066;2022-08-18T15:50:22;100878.84;;;22.36;94.79
56042;BME280;48756;41.374;2.066;2022-08-18T15:52:57;100843.22;;;22.40;91.23
56042;BME280;48756;41.374;2.066;2022-08-18T15:55:26;100817.84;;;22.66;91.76
56042;BME280;48756;41.374;2.066;2022-08-18T15:57:53;100801.53;;;22.72;90.49
56042;BME280;48756;41.374;2.066;2022-08-18T16:00:19;100786.47;;;22.72;91.37
56042;BME280;48756;41.374;2.066;2022-08-18T16:02:51;100771.16;;;22.91;92.01
56042;BME280;48756;41.374;2.066;2022-08-18T16:05:19;100761.47;;;22.90;92.00
56042;BME280;48756;41.374;2.066;2022-08-18T16:07:47;100766.13;;;23.01;90.16